< < Back
Terminal Aerodrome Forecast


Current Version              Previous Versions:   1  2  3  4  5  6  7  8  9  

Terminal Aerodrome Forecast

703
FTUS44 KHUN 202325
TAFHSV
TAF
KHSV 202325Z 2100/2124 03004KT P6SM SKC
     FM211000 04004KT 5SM BR FEW250
     FM211400 08005KT P6SM SCT250
     FM212000 13005KT P6SM SCT070 OVC200=

Latest METAR

965
SAUS80 KWBC 211000 RRA
MTRHSV
METAR KHSV 210953Z AUTO 05003KT 10SM CLR 01/M02 A3020 RMK AO2 SLP227
T00111022


USA.gov is the U.S. government's official web portal to all federal, state and local government web resources and services.